createdAt,value
2018-09-05T00:00:26.021Z,98837.33
2018-09-05T00:02:57.389Z,98840.11
2018-09-05T00:05:29.343Z,98839.48
2018-09-05T00:08:01.680Z,98840.52
2018-09-05T00:10:33.447Z,98840.12
2018-09-05T00:13:05.301Z,98837.92
2018-09-05T00:15:37.100Z,98838.48
2018-09-05T00:18:08.381Z,98838.77
2018-09-05T00:20:41.941Z,98835.44
2018-09-05T00:23:13.413Z,98842.20
2018-09-05T00:25:45.551Z,98835.38
2018-09-05T00:28:18.012Z,98842.66
2018-09-05T00:30:49.317Z,98847.28
2018-09-05T00:33:21.240Z,98845.27
2018-09-05T00:35:53.462Z,98847.17
2018-09-05T00:38:24.589Z,98845.16
2018-09-05T00:40:55.418Z,98842.52
2018-09-05T00:43:26.216Z,98845.62
2018-09-05T00:45:56.809Z,98837.29
2018-09-05T00:48:29.061Z,98842.36
2018-09-05T00:51:01.244Z,98838.99
2018-09-05T00:53:33.077Z,98845.46
2018-09-05T00:56:05.558Z,98842.61
2018-09-05T00:58:37.648Z,98842.37
2018-09-05T01:01:08.268Z,98849.42
2018-09-05T01:03:38.953Z,98849.00
2018-09-05T01:06:10.896Z,98840.94
2018-09-05T01:08:42.242Z,98843.73
2018-09-05T01:11:13.492Z,98845.52
2018-09-05T01:13:43.962Z,98847.80
2018-09-05T01:16:16.513Z,98847.34
2018-09-05T01:18:47.136Z,98843.08
2018-09-05T01:21:18.349Z,98843.93
2018-09-05T01:23:49.184Z,98842.99
2018-09-05T01:26:20.060Z,98844.31
2018-09-05T01:28:50.813Z,98840.17
2018-09-05T01:31:22.398Z,98845.80
2018-09-05T01:33:54.030Z,98846.22
2018-09-05T01:36:27.232Z,98830.75
2018-09-05T01:39:01.085Z,98843.64
2018-09-05T01:41:32.949Z,98836.84
2018-09-05T01:44:04.455Z,98843.64
2018-09-05T01:46:36.821Z,98845.39
2018-09-05T01:49:08.145Z,98839.66
2018-09-05T01:51:40.372Z,98847.36
2018-09-05T01:54:12.274Z,98846.41
2018-09-05T01:56:44.209Z,98842.62
2018-09-05T01:59:15.989Z,98845.05
2018-09-05T02:01:47.239Z,98844.59
2018-09-05T02:04:19.666Z,98838.30
2018-09-05T02:06:50.713Z,98836.52
2018-09-05T02:09:22.940Z,98835.77
2018-09-05T02:11:54.522Z,98840.50
2018-09-05T02:14:25.885Z,98835.95
2018-09-05T02:16:56.723Z,98835.72
2018-09-05T02:19:28.416Z,98836.14
2018-09-05T02:22:03.475Z,98830.98
2018-09-05T02:24:35.822Z,98834.79
2018-09-05T02:27:08.873Z,98836.70
2018-09-05T02:29:39.953Z,98837.41
2018-09-05T02:32:10.593Z,98842.30
2018-09-05T02:34:41.505Z,98831.08
2018-09-05T02:37:14.142Z,98831.83
2018-09-05T02:39:45.454Z,98827.66
2018-09-05T02:42:16.861Z,98822.67
2018-09-05T02:44:47.918Z,98831.50
2018-09-05T02:47:18.879Z,98828.08
2018-09-05T02:49:50.615Z,98829.91
2018-09-05T02:52:22.002Z,98832.58
2018-09-05T02:54:54.141Z,98830.39
2018-09-05T02:57:25.143Z,98830.39
2018-09-05T02:59:58.269Z,98831.50
2018-09-05T03:02:29.967Z,98827.70
2018-09-05T03:05:01.892Z,98835.47
2018-09-05T03:07:33.275Z,98837.72
2018-09-05T03:10:05.463Z,98838.93
2018-09-05T03:12:36.781Z,98845.76
2018-09-05T03:15:08.394Z,98831.19
2018-09-05T03:17:39.952Z,98831.79
2018-09-05T03:20:13.327Z,98832.39
2018-09-05T03:22:44.282Z,98840.97
2018-09-05T03:25:16.935Z,98839.32
2018-09-05T03:27:53.093Z,98840.37
2018-09-05T03:30:23.871Z,98843.70
2018-09-05T03:32:56.606Z,98842.39
2018-09-05T03:35:28.137Z,98845.97
2018-09-05T03:37:59.350Z,98842.63
2018-09-05T03:40:30.766Z,98845.36
2018-09-05T03:43:02.744Z,98845.97
2018-09-05T03:45:35.532Z,98838.46
2018-09-05T03:48:06.721Z,98841.80
2018-09-05T03:50:38.627Z,98845.97
2018-09-05T03:53:10.734Z,98840.34
2018-09-05T03:55:42.024Z,98838.33
2018-09-05T03:58:13.474Z,98843.23
2018-09-05T04:00:45.925Z,98844.55
2018-09-05T04:03:18.471Z,98845.49
2018-09-05T04:05:50.387Z,98849.66
2018-09-05T04:08:22.489Z,98851.69
2018-09-05T04:10:54.050Z,98849.53
2018-09-05T04:13:25.470Z,98847.15
2018-09-05T04:15:57.422Z,98848.33
2018-09-05T04:18:29.593Z,98847.72
2018-09-05T04:21:01.144Z,98855.47
2018-09-05T04:23:38.222Z,98854.80
2018-09-05T04:26:09.358Z,98859.91
2018-09-05T04:28:41.307Z,98859.44
2018-09-05T04:31:14.118Z,98864.69
2018-09-05T04:33:45.951Z,98866.20
2018-09-05T04:36:18.641Z,98865.84
2018-09-05T04:38:49.833Z,98860.83
2018-09-05T04:41:21.073Z,98859.95
2018-09-05T04:43:52.573Z,98860.80
2018-09-05T04:46:24.225Z,98869.72
2018-09-05T04:48:55.567Z,98868.64
2018-09-05T04:51:27.481Z,98871.63
2018-09-05T04:53:58.162Z,98874.70
2018-09-05T04:56:30.005Z,98870.86
2018-09-05T04:59:02.127Z,98880.98
2018-09-05T05:01:33.015Z,98875.83
2018-09-05T05:04:04.413Z,98868.92
2018-09-05T05:06:35.751Z,98876.44
2018-09-05T05:09:12.645Z,98884.14
2018-09-05T05:11:44.325Z,98880.76
2018-09-05T05:14:17.119Z,98879.92
2018-09-05T05:16:48.575Z,98878.84
2018-09-05T05:19:19.924Z,98883.91
2018-09-05T05:21:52.368Z,98886.06
2018-09-05T05:24:24.432Z,98878.45
2018-09-05T05:26:57.235Z,98873.80
2018-09-05T05:29:29.762Z,98884.45
2018-09-05T05:32:01.957Z,98886.72
2018-09-05T05:34:33.982Z,98888.92
2018-09-05T05:37:06.646Z,98885.76
2018-09-05T05:39:38.972Z,98882.63
2018-09-05T05:42:10.029Z,98876.42
2018-09-05T05:44:40.776Z,98878.86
2018-09-05T05:47:13.653Z,98878.81
2018-09-05T05:49:44.041Z,98876.16
2018-09-05T05:52:14.655Z,98874.85
2018-09-05T05:54:45.354Z,98880.72
2018-09-05T05:57:17.287Z,98879.95
2018-09-05T05:59:47.717Z,98884.23
2018-09-05T06:02:18.249Z,98881.47
2018-09-05T06:04:48.860Z,98883.64
2018-09-05T06:07:20.011Z,98884.27
2018-09-05T06:09:51.237Z,98888.51
2018-09-05T06:12:21.868Z,98888.97
2018-09-05T06:14:52.527Z,98884.38
2018-09-05T06:17:23.072Z,98875.70
2018-09-05T06:19:53.531Z,98874.75
2018-09-05T06:22:24.257Z,98877.41
2018-09-05T06:24:55.091Z,98876.72
2018-09-05T06:27:26.140Z,98878.02
2018-09-05T06:29:56.635Z,98876.97
2018-09-05T06:32:27.011Z,98879.28
2018-09-05T06:34:57.752Z,98882.17
2018-09-05T06:37:28.273Z,98883.75
2018-09-05T06:39:59.747Z,98888.52
2018-09-05T06:42:30.432Z,98879.77
2018-09-05T06:45:01.050Z,98880.66
2018-09-05T06:47:31.464Z,98889.08
2018-09-05T06:50:02.174Z,98898.89
2018-09-05T06:52:32.723Z,98897.25
2018-09-05T06:55:04.032Z,98899.56
2018-09-05T06:57:34.851Z,98891.98
2018-09-05T07:00:05.521Z,98903.27
2018-09-05T07:02:36.270Z,98894.87
2018-09-05T07:05:07.291Z,98905.70
2018-09-05T07:07:38.021Z,98901.92
2018-09-05T07:10:08.779Z,98898.50
2018-09-05T07:12:39.623Z,98900.53
2018-09-05T07:15:10.478Z,98904.80
2018-09-05T07:17:43.166Z,98906.31
2018-09-05T07:20:14.039Z,98906.69
2018-09-05T07:22:45.112Z,98910.95
2018-09-05T07:25:15.898Z,98910.86
2018-09-05T07:27:47.401Z,98909.73
2018-09-05T07:30:18.603Z,98908.13
2018-09-05T07:32:49.574Z,98902.75
2018-09-05T07:35:20.178Z,98905.48
2018-09-05T07:37:52.735Z,98900.56
2018-09-05T07:40:27.240Z,98899.20
2018-09-05T07:42:57.699Z,98902.70
2018-09-05T07:45:28.496Z,98902.53
2018-09-05T07:47:59.099Z,98908.98
2018-09-05T07:50:30.354Z,98900.02
2018-09-05T07:53:02.227Z,98913.47
2018-09-05T07:55:33.306Z,98909.73
2018-09-05T07:58:03.745Z,98902.34
2018-09-05T08:00:34.330Z,98908.49
2018-09-05T08:03:04.977Z,98908.32
2018-09-05T08:05:35.711Z,98911.50
2018-09-05T08:08:06.454Z,98908.33
2018-09-05T08:10:37.026Z,98912.95
2018-09-05T08:13:07.589Z,98919.14
2018-09-05T08:15:38.694Z,98909.44
2018-09-05T08:18:09.745Z,98916.88
2018-09-05T08:20:40.655Z,98914.39
2018-09-05T08:23:11.259Z,98922.23
2018-09-05T08:25:42.001Z,98918.67
2018-09-05T08:28:13.296Z,98918.26
2018-09-05T08:30:44.122Z,98912.35
2018-09-05T08:33:15.353Z,98908.74
2018-09-05T08:35:46.262Z,98907.41
2018-09-05T08:38:16.698Z,98913.30
2018-09-05T08:40:47.446Z,98910.06
2018-09-05T08:43:17.941Z,98904.36
2018-09-05T08:45:48.996Z,98904.55
2018-09-05T08:48:20.579Z,98915.11
2018-09-05T08:50:52.531Z,98911.69
2018-09-05T08:53:25.923Z,98909.83
2018-09-05T08:55:57.910Z,98902.48
2018-09-05T08:58:29.862Z,98914.25
2018-09-05T09:01:00.525Z,98908.31
2018-09-05T09:03:31.210Z,98902.25
2018-09-05T09:06:01.767Z,98903.69
2018-09-05T09:08:32.346Z,98905.80
2018-09-05T09:11:02.976Z,98898.31
2018-09-05T09:13:33.607Z,98901.88
2018-09-05T09:16:04.316Z,98903.41
2018-09-05T09:18:35.188Z,98904.72
2018-09-05T09:21:06.359Z,98897.26
2018-09-05T09:23:37.283Z,98898.45
2018-09-05T09:26:08.828Z,98896.58
2018-09-05T09:28:39.415Z,98892.50
2018-09-05T09:31:10.599Z,98888.42
2018-09-05T09:33:41.111Z,98886.24
2018-09-05T09:36:11.766Z,98874.80
2018-09-05T09:38:42.450Z,98882.71
2018-09-05T09:41:13.142Z,98880.22
2018-09-05T09:43:44.832Z,98879.41
2018-09-05T09:46:15.687Z,98877.02
2018-09-05T09:48:46.276Z,98873.95
2018-09-05T09:51:17.204Z,98870.43
2018-09-05T09:53:47.754Z,98871.91
2018-09-05T09:56:18.570Z,98871.14
2018-09-05T09:58:49.250Z,98870.34
2018-09-05T10:01:27.067Z,98860.91
2018-09-05T10:04:08.134Z,98854.62
2018-09-05T10:06:50.473Z,98853.88
2018-09-05T10:09:26.263Z,98854.25
2018-09-05T10:12:01.841Z,98855.84
2018-09-05T10:14:32.629Z,98845.11
2018-09-05T10:17:08.364Z,98846.84
2018-09-05T10:19:38.969Z,98836.42
2018-09-05T10:22:09.441Z,98831.11
2018-09-05T10:24:40.004Z,98839.66
2018-09-05T10:27:10.524Z,98844.72
2018-09-05T10:29:41.519Z,98835.28
2018-09-05T10:32:12.197Z,98837.48
2018-09-05T10:34:42.951Z,98836.55
2018-09-05T10:37:14.708Z,98831.75
2018-09-05T10:39:45.269Z,98830.36
2018-09-05T10:42:18.907Z,98825.79
2018-09-05T10:44:49.636Z,98832.16
2018-09-05T10:47:20.997Z,98824.12
2018-09-05T10:49:51.510Z,98822.84
2018-09-05T10:52:22.129Z,98819.24
2018-09-05T10:54:52.625Z,98826.63
2018-09-05T10:57:23.350Z,98814.65
2018-09-05T10:59:53.934Z,98811.09
2018-09-05T11:02:24.488Z,98806.48
2018-09-05T11:04:54.955Z,98822.79
2018-09-05T11:07:25.502Z,98805.34
2018-09-05T11:09:56.632Z,98803.47
2018-09-05T11:12:27.796Z,98799.97
2018-09-05T11:14:59.213Z,98808.39
2018-09-05T11:17:36.064Z,98793.96
2018-09-05T11:20:09.683Z,98793.14
2018-09-05T11:22:45.933Z,98793.67
2018-09-05T11:25:17.810Z,98799.40
2018-09-05T11:27:49.112Z,98797.95
2018-09-05T11:30:20.535Z,98793.19
2018-09-05T11:32:51.611Z,98794.02
2018-09-05T11:35:22.287Z,98788.83
2018-09-05T11:37:53.365Z,98785.53
2018-09-05T11:40:24.901Z,98788.20
2018-09-05T11:42:55.810Z,98779.27
2018-09-05T11:45:26.805Z,98776.83
2018-09-05T11:47:57.896Z,98773.50
2018-09-05T11:50:30.101Z,98777.59
2018-09-05T11:53:02.772Z,98772.73
2018-09-05T11:55:34.363Z,98776.20
2018-09-05T11:58:05.292Z,98765.11
2018-09-05T12:00:36.143Z,98762.23
2018-09-05T12:03:06.934Z,98752.92
2018-09-05T12:05:37.545Z,98749.44
2018-09-05T12:08:08.330Z,98747.19
2018-09-05T12:10:39.114Z,98743.93
2018-09-05T12:13:09.878Z,98739.54
2018-09-05T12:15:41.206Z,98732.22
2018-09-05T12:18:13.003Z,98738.36
2018-09-05T12:20:43.867Z,98734.81
2018-09-05T12:23:17.632Z,98726.48
2018-09-05T12:25:48.229Z,98731.06
2018-09-05T12:28:19.071Z,98724.02
2018-09-05T12:30:49.716Z,98723.70
2018-09-05T12:33:20.239Z,98722.56
2018-09-05T12:35:50.803Z,98724.75
2018-09-05T12:38:21.436Z,98721.50
2018-09-05T12:40:51.943Z,98716.69
2018-09-05T12:43:25.728Z,98711.73
2018-09-05T12:45:56.799Z,98712.51
2018-09-05T12:48:28.254Z,98708.64
2018-09-05T12:50:59.018Z,98702.19
2018-09-05T12:53:29.863Z,98710.69
2018-09-05T12:56:01.587Z,98705.47
2018-09-05T12:58:32.972Z,98694.58
2018-09-05T13:01:05.039Z,98691.73
2018-09-05T13:03:41.555Z,98690.20
2018-09-05T13:06:12.066Z,98688.42
2018-09-05T13:08:43.441Z,98684.67
2018-09-05T13:11:15.692Z,98682.28
2018-09-05T13:13:46.754Z,98676.69
2018-09-05T13:16:18.519Z,98669.44
2018-09-05T13:18:49.431Z,98673.15
2018-09-05T13:21:20.240Z,98672.56
2018-09-05T13:23:54.480Z,98670.20
2018-09-05T13:26:28.005Z,98668.28
2018-09-05T13:28:59.311Z,98667.66
2018-09-05T13:31:30.497Z,98656.17
2018-09-05T13:34:01.952Z,98658.07
2018-09-05T13:36:34.779Z,98659.16
2018-09-05T13:39:08.567Z,98657.34
2018-09-05T13:41:39.676Z,98661.74
2018-09-05T13:44:10.844Z,98658.36
2018-09-05T13:46:42.161Z,98653.97
2018-09-05T13:49:14.220Z,98655.10
2018-09-05T13:51:48.781Z,98654.14
2018-09-05T13:54:19.731Z,98644.90
2018-09-05T13:56:50.761Z,98646.63
2018-09-05T13:59:21.366Z,98650.03
2018-09-05T14:01:52.166Z,98643.81
2018-09-05T14:04:22.761Z,98644.02
2018-09-05T14:06:53.529Z,98639.66
2018-09-05T14:09:24.760Z,98632.92
2018-09-05T14:11:55.979Z,98636.67
2018-09-05T14:14:28.148Z,98632.73
2018-09-05T14:16:59.649Z,98631.42
2018-09-05T14:19:30.367Z,98628.00
2018-09-05T14:22:01.240Z,98632.11
2018-09-05T14:24:32.703Z,98626.97
2018-09-05T14:27:03.336Z,98627.95
2018-09-05T14:29:34.325Z,98625.14
2018-09-05T14:32:06.683Z,98622.80
2018-09-05T14:34:37.254Z,98617.66
2018-09-05T14:37:08.448Z,98615.09
2018-09-05T14:39:39.502Z,98617.65
2018-09-05T14:42:10.651Z,98620.09
2018-09-05T14:44:42.507Z,98614.47
2018-09-05T14:47:14.116Z,98615.17
2018-09-05T14:49:45.599Z,98622.19
2018-09-05T14:52:16.674Z,98619.20
2018-09-05T14:54:47.441Z,98616.86
2018-09-05T14:57:18.792Z,98612.23
2018-09-05T14:59:49.523Z,98612.76
2018-09-05T15:02:21.214Z,98609.80
2018-09-05T15:04:52.169Z,98609.01
2018-09-05T15:07:23.075Z,98615.79
2018-09-05T15:09:53.839Z,98615.81
2018-09-05T15:12:24.586Z,98608.34
2018-09-05T15:14:55.396Z,98597.92
2018-09-05T15:17:26.097Z,98604.02
2018-09-05T15:19:58.882Z,98597.72
2018-09-05T15:22:29.925Z,98604.09
2018-09-05T15:25:02.150Z,98593.79
2018-09-05T15:27:34.267Z,98600.82
2018-09-05T15:30:07.670Z,98595.90
2018-09-05T15:32:39.793Z,98593.44
2018-09-05T15:35:11.838Z,98593.46
2018-09-05T15:37:42.527Z,98590.91
2018-09-05T15:40:13.340Z,98584.86
2018-09-05T15:42:44.702Z,98586.41
2018-09-05T15:45:15.555Z,98584.37
2018-09-05T15:47:46.632Z,98577.33
2018-09-05T15:50:17.466Z,98587.26
2018-09-05T15:52:48.210Z,98576.29
2018-09-05T15:55:18.991Z,98576.07
2018-09-05T15:57:50.308Z,98575.37
2018-09-05T16:00:21.288Z,98570.91
2018-09-05T16:02:52.240Z,98570.77
2018-09-05T16:05:24.055Z,98576.00
2018-09-05T16:07:59.037Z,98566.74
2018-09-05T16:10:32.558Z,98568.84
2018-09-05T16:13:03.338Z,98573.78
2018-09-05T16:15:34.936Z,98573.86
2018-09-05T16:18:05.623Z,98574.54
2018-09-05T16:20:37.592Z,98573.13
2018-09-05T16:23:09.040Z,98566.56
2018-09-05T16:25:40.525Z,98568.92
2018-09-05T16:28:13.592Z,98569.58
2018-09-05T16:30:46.794Z,98569.58
2018-09-05T16:33:20.256Z,98571.50
2018-09-05T16:35:53.360Z,98569.13
2018-09-05T16:38:24.383Z,98566.20
2018-09-05T16:40:55.246Z,98568.83
2018-09-05T16:43:26.298Z,98574.41
2018-09-05T16:45:57.208Z,98581.05
2018-09-05T16:48:29.995Z,98572.39
2018-09-05T16:51:04.922Z,98577.77
2018-09-05T16:53:37.717Z,98572.39
2018-09-05T16:56:09.763Z,98582.20
2018-09-05T16:58:40.916Z,98581.59
2018-09-05T17:01:12.152Z,98570.17
2018-09-05T17:03:45.141Z,98579.83
2018-09-05T17:06:18.001Z,98574.09
2018-09-05T17:08:50.230Z,98573.39
2018-09-05T17:11:21.030Z,98572.05
2018-09-05T17:13:52.428Z,98568.64
2018-09-05T17:16:24.226Z,98575.34
2018-09-05T17:18:55.429Z,98571.39
2018-09-05T17:21:26.785Z,98572.52
2018-09-05T17:23:58.399Z,98577.31
2018-09-05T17:26:30.187Z,98573.85
2018-09-05T17:29:01.021Z,98572.55
2018-09-05T17:31:32.551Z,98572.25
2018-09-05T17:34:04.697Z,98573.48
2018-09-05T17:36:36.710Z,98575.27
2018-09-05T17:39:11.422Z,98576.22
2018-09-05T17:41:42.814Z,98581.05
2018-09-05T17:44:14.229Z,98584.39
2018-09-05T17:46:45.624Z,98585.39
2018-09-05T17:49:19.382Z,98587.32
2018-09-05T17:51:51.551Z,98590.18
2018-09-05T17:54:22.649Z,98580.20
2018-09-05T17:56:55.116Z,98585.84
2018-09-05T17:59:26.882Z,98585.63
2018-09-05T18:01:58.610Z,98584.81
2018-09-05T18:04:30.359Z,98594.96
2018-09-05T18:07:02.951Z,98598.09
2018-09-05T18:09:35.671Z,98597.81
2018-09-05T18:12:07.835Z,98596.73
2018-09-05T18:14:42.437Z,98602.35
2018-09-05T18:17:15.620Z,98605.92
2018-09-05T18:19:47.304Z,98618.70
2018-09-05T18:22:19.315Z,98615.36
2018-09-05T18:24:51.085Z,98610.81
2018-09-05T18:27:22.982Z,98622.52
2018-09-05T18:29:54.663Z,98622.03
2018-09-05T18:32:26.533Z,98620.69
2018-09-05T18:34:58.778Z,98623.69
2018-09-05T18:37:31.247Z,98622.08
2018-09-05T18:40:03.593Z,98624.72
2018-09-05T18:42:35.619Z,98620.01
2018-09-05T18:45:08.606Z,98623.50
2018-09-05T18:47:40.847Z,98628.86
2018-09-05T18:50:12.994Z,98630.19
2018-09-05T18:52:45.698Z,98635.06
2018-09-05T18:55:18.754Z,98642.43
2018-09-05T18:57:50.789Z,98642.34
2018-09-05T19:00:23.608Z,98646.14
2018-09-05T19:02:55.784Z,98644.07
2018-09-05T19:05:29.271Z,98635.94
2018-09-05T19:08:01.972Z,98642.00
2018-09-05T19:10:37.694Z,98638.33
2018-09-05T19:13:13.434Z,98643.94
2018-09-05T19:15:51.437Z,98640.90
2018-09-05T19:18:25.301Z,98642.88
2018-09-05T19:20:57.459Z,98640.90
2018-09-05T19:23:29.450Z,98643.41
2018-09-05T19:26:01.886Z,98651.46
2018-09-05T19:28:33.990Z,98655.83
2018-09-05T19:31:06.022Z,98652.40
2018-09-05T19:33:39.525Z,98655.89
2018-09-05T19:36:12.849Z,98656.08
2018-09-05T19:38:44.529Z,98652.31
2018-09-05T19:41:16.953Z,98648.73
2018-09-05T19:43:48.955Z,98648.73
2018-09-05T19:46:22.474Z,98650.12
2018-09-05T19:48:54.836Z,98660.25
2018-09-05T19:51:26.741Z,98653.42
2018-09-05T19:53:59.826Z,98655.27
2018-09-05T19:56:34.528Z,98650.31
2018-09-05T19:59:08.176Z,98652.98
2018-09-05T20:01:45.105Z,98654.00
2018-09-05T20:04:19.888Z,98657.83
2018-09-05T20:06:57.765Z,98658.00
2018-09-05T20:09:33.428Z,98649.56
2018-09-05T20:12:07.993Z,98659.74
2018-09-05T20:14:44.473Z,98656.92
2018-09-05T20:17:17.514Z,98652.78
2018-09-05T20:19:55.445Z,98648.64
2018-09-05T20:22:33.568Z,98654.14
2018-09-05T20:25:22.063Z,98652.35
2018-09-05T20:27:55.112Z,98658.48
2018-09-05T20:30:27.180Z,98654.51
2018-09-05T20:32:59.117Z,98659.32
2018-09-05T20:35:31.527Z,98658.48
2018-09-05T20:38:03.456Z,98660.83
2018-09-05T20:40:35.658Z,98656.19
2018-09-05T20:43:07.372Z,98668.45
2018-09-05T20:45:39.049Z,98672.78
2018-09-05T20:48:11.700Z,98670.29
2018-09-05T20:50:43.705Z,98666.17
2018-09-05T20:53:16.467Z,98672.80
2018-09-05T20:55:48.478Z,98674.59
2018-09-05T20:58:21.195Z,98676.42
2018-09-05T21:00:53.448Z,98680.70
2018-09-05T21:03:26.518Z,98683.36
2018-09-05T21:05:59.077Z,98682.70
2018-09-05T21:08:30.970Z,98684.70
2018-09-05T21:11:02.681Z,98682.39
2018-09-05T21:13:35.196Z,98690.36
2018-09-05T21:16:08.376Z,98692.34
2018-09-05T21:18:40.391Z,98687.71
2018-09-05T21:21:12.693Z,98689.67
2018-09-05T21:23:44.036Z,98687.20
2018-09-05T21:26:15.613Z,98693.65
2018-09-05T21:28:46.494Z,98688.84
2018-09-05T21:31:17.494Z,98692.67
2018-09-05T21:33:48.568Z,98691.48
2018-09-05T21:36:19.604Z,98691.66
2018-09-05T21:38:50.312Z,98691.16
2018-09-05T21:41:20.910Z,98694.77
2018-09-05T21:43:51.625Z,98694.84
2018-09-05T21:46:22.614Z,98698.96
2018-09-05T21:48:53.446Z,98702.77
2018-09-05T21:51:24.055Z,98700.77
2018-09-05T21:53:54.600Z,98707.92
2018-09-05T21:56:25.117Z,98710.38
2018-09-05T21:58:55.673Z,98707.08
2018-09-05T22:01:26.232Z,98705.42
2018-09-05T22:03:56.946Z,98709.06
2018-09-05T22:06:27.536Z,98707.72
2018-09-05T22:08:58.343Z,98713.00
2018-09-05T22:11:28.834Z,98711.00
2018-09-05T22:13:59.873Z,98707.69
2018-09-05T22:16:30.927Z,98709.98
2018-09-05T22:19:02.156Z,98709.50
2018-09-05T22:21:32.681Z,98711.59
2018-09-05T22:24:03.550Z,98708.91
2018-09-05T22:26:34.052Z,98708.08
2018-09-05T22:29:04.659Z,98705.30
2018-09-05T22:31:35.372Z,98699.47
2018-09-05T22:34:06.228Z,98703.59
2018-09-05T22:36:36.726Z,98689.86
2018-09-05T22:39:09.458Z,98693.64
2018-09-05T22:41:40.003Z,98692.62
2018-09-05T22:44:27.048Z,98698.52
2018-09-05T22:47:14.827Z,98684.88
2018-09-05T22:50:07.709Z,98679.39
2018-09-05T22:56:00.521Z,98674.40
2018-09-05T23:00:54.389Z,98672.16
2018-09-05T23:04:49.061Z,98677.80
2018-09-05T23:07:35.095Z,98682.55
2018-09-05T23:10:21.872Z,98675.94
2018-09-05T23:13:08.714Z,98677.11
2018-09-05T23:15:55.493Z,98679.05
2018-09-05T23:18:47.975Z,98676.97
2018-09-05T23:21:21.312Z,98684.16
2018-09-05T23:24:11.268Z,98681.52
2018-09-05T23:26:42.380Z,98683.38
2018-09-05T23:29:12.841Z,98681.39
2018-09-05T23:31:43.390Z,98680.88
2018-09-05T23:34:13.805Z,98671.69
2018-09-05T23:36:44.313Z,98670.05
2018-09-05T23:39:14.665Z,98675.55
2018-09-05T23:41:45.170Z,98665.55
2018-09-05T23:44:15.695Z,98665.99
2018-09-05T23:46:46.141Z,98667.70
2018-09-05T23:49:16.517Z,98672.63
2018-09-05T23:51:47.021Z,98668.80
2018-09-05T23:54:17.400Z,98662.00
2018-09-05T23:56:47.928Z,98663.80
2018-09-05T23:59:19.050Z,98657.72
